Terminal Aerodrome Forecast
Issued by NWS

Home | Current Version | Previous Version | Graphics & Text | Print | Product List | Glossary On
Versions: 1 2 3 4 5 6 7 8 9 10 11 12 13 14 15 16
000
FTUS43 KICT 231120
TAFCNU
TAF
KCNU 231120Z 2312/2412 17011KT P6SM -DZ BKN007 OVC015
     FM231800 21012KT 6SM BR VCSH OVC012
     FM232300 32020G28KT P6SM -RA OVC020
     FM240500 31017KT P6SM SCT025 BKN060
     FM240900 29013KT P6SM FEW250=

USA.gov is the U.S. government's official web portal to all federal, state and local government web resources and services.